sensor_id;sensor_type;location;lat;lon;timestamp;P1;durP1;ratioP1;P2;durP2;ratioP2
49310;SDS011;35177;45.900;5.946;2024-01-27T00:01:43;182.95;;;22.50;;
49310;SDS011;35177;45.900;5.946;2024-01-27T00:04:09;212.50;;;22.40;;
49310;SDS011;35177;45.900;5.946;2024-01-27T00:06:34;200.25;;;21.15;;
49310;SDS011;35177;45.900;5.946;2024-01-27T00:08:59;65.72;;;17.33;;
49310;SDS011;35177;45.900;5.946;2024-01-27T00:11:25;66.93;;;20.98;;
49310;SDS011;35177;45.900;5.946;2024-01-27T00:13:50;146.52;;;24.27;;
49310;SDS011;35177;45.900;5.946;2024-01-27T00:16:15;191.30;;;25.65;;
49310;SDS011;35177;45.900;5.946;2024-01-27T00:18:41;90.03;;;23.08;;
49310;SDS011;35177;45.900;5.946;2024-01-27T00:21:06;106.75;;;22.38;;
49310;SDS011;35177;45.900;5.946;2024-01-27T00:23:31;62.35;;;20.77;;
49310;SDS011;35177;45.900;5.946;2024-01-27T00:26:02;85.03;;;21.25;;
49310;SDS011;35177;45.900;5.946;2024-01-27T00:28:28;64.63;;;19.67;;
49310;SDS011;35177;45.900;5.946;2024-01-27T00:30:54;203.98;;;25.40;;
49310;SDS011;35177;45.900;5.946;2024-01-27T00:33:19;171.27;;;24.42;;
49310;SDS011;35177;45.900;5.946;2024-01-27T00:35:44;140.88;;;23.52;;
49310;SDS011;35177;45.900;5.946;2024-01-27T00:38:10;96.55;;;20.48;;
49310;SDS011;35177;45.900;5.946;2024-01-27T00:40:35;151.60;;;24.60;;
49310;SDS011;35177;45.900;5.946;2024-01-27T00:43:03;95.65;;;21.67;;
49310;SDS011;35177;45.900;5.946;2024-01-27T00:45:28;183.77;;;25.80;;
49310;SDS011;35177;45.900;5.946;2024-01-27T00:47:55;187.85;;;25.58;;
49310;SDS011;35177;45.900;5.946;2024-01-27T00:50:21;109.25;;;21.42;;
49310;SDS011;35177;45.900;5.946;2024-01-27T00:52:46;98.85;;;21.35;;
49310;SDS011;35177;45.900;5.946;2024-01-27T00:55:11;86.00;;;21.50;;
49310;SDS011;35177;45.900;5.946;2024-01-27T00:57:37;117.85;;;23.15;;
49310;SDS011;35177;45.900;5.946;2024-01-27T01:00:04;116.63;;;22.42;;
49310;SDS011;35177;45.900;5.946;2024-01-27T01:02:29;103.63;;;23.33;;
49310;SDS011;35177;45.900;5.946;2024-01-27T01:04:55;106.25;;;22.27;;
49310;SDS011;35177;45.900;5.946;2024-01-27T01:07:20;71.90;;;20.75;;
49310;SDS011;35177;45.900;5.946;2024-01-27T01:09:45;60.63;;;19.63;;
49310;SDS011;35177;45.900;5.946;2024-01-27T01:12:10;73.75;;;20.17;;
49310;SDS011;35177;45.900;5.946;2024-01-27T01:14:36;36.47;;;16.38;;
49310;SDS011;35177;45.900;5.946;2024-01-27T01:17:01;38.92;;;15.88;;
49310;SDS011;35177;45.900;5.946;2024-01-27T01:19:26;71.38;;;16.02;;
49310;SDS011;35177;45.900;5.946;2024-01-27T01:21:52;83.13;;;15.77;;
49310;SDS011;35177;45.900;5.946;2024-01-27T01:24:17;106.07;;;16.55;;
49310;SDS011;35177;45.900;5.946;2024-01-27T01:26:42;114.40;;;18.48;;
49310;SDS011;35177;45.900;5.946;2024-01-27T01:29:08;75.80;;;17.25;;
49310;SDS011;35177;45.900;5.946;2024-01-27T01:31:33;69.70;;;18.80;;
49310;SDS011;35177;45.900;5.946;2024-01-27T01:33:58;110.15;;;20.63;;
49310;SDS011;35177;45.900;5.946;2024-01-27T01:36:23;155.38;;;22.35;;
49310;SDS011;35177;45.900;5.946;2024-01-27T01:38:49;243.80;;;31.92;;
49310;SDS011;35177;45.900;5.946;2024-01-27T01:41:14;318.40;;;36.75;;
49310;SDS011;35177;45.900;5.946;2024-01-27T01:43:39;207.35;;;41.95;;
49310;SDS011;35177;45.900;5.946;2024-01-27T01:46:05;112.05;;;19.70;;
49310;SDS011;35177;45.900;5.946;2024-01-27T01:48:30;67.22;;;15.13;;
49310;SDS011;35177;45.900;5.946;2024-01-27T01:50:55;53.90;;;12.98;;
49310;SDS011;35177;45.900;5.946;2024-01-27T01:53:21;134.60;;;17.27;;
49310;SDS011;35177;45.900;5.946;2024-01-27T01:55:47;104.18;;;13.43;;
49310;SDS011;35177;45.900;5.946;2024-01-27T01:58:12;76.70;;;11.35;;
49310;SDS011;35177;45.900;5.946;2024-01-27T02:00:37;126.15;;;16.85;;
49310;SDS011;35177;45.900;5.946;2024-01-27T02:03:03;104.00;;;14.60;;
49310;SDS011;35177;45.900;5.946;2024-01-27T02:05:28;71.20;;;14.05;;
49310;SDS011;35177;45.900;5.946;2024-01-27T02:07:53;128.60;;;19.00;;
49310;SDS011;35177;45.900;5.946;2024-01-27T02:10:21;157.52;;;16.17;;
49310;SDS011;35177;45.900;5.946;2024-01-27T02:12:46;128.43;;;14.60;;
49310;SDS011;35177;45.900;5.946;2024-01-27T02:15:12;84.32;;;12.73;;
49310;SDS011;35177;45.900;5.946;2024-01-27T02:17:38;105.32;;;15.35;;
49310;SDS011;35177;45.900;5.946;2024-01-27T02:20:04;100.32;;;15.40;;
49310;SDS011;35177;45.900;5.946;2024-01-27T02:22:29;155.73;;;16.90;;
49310;SDS011;35177;45.900;5.946;2024-01-27T02:24:54;69.22;;;14.00;;
49310;SDS011;35177;45.900;5.946;2024-01-27T02:27:20;131.13;;;15.27;;
49310;SDS011;35177;45.900;5.946;2024-01-27T02:29:45;103.75;;;16.77;;
49310;SDS011;35177;45.900;5.946;2024-01-27T02:32:10;101.80;;;16.75;;
49310;SDS011;35177;45.900;5.946;2024-01-27T02:34:35;58.55;;;14.05;;
49310;SDS011;35177;45.900;5.946;2024-01-27T02:37:01;68.45;;;13.10;;
49310;SDS011;35177;45.900;5.946;2024-01-27T02:39:26;55.05;;;12.70;;
49310;SDS011;35177;45.900;5.946;2024-01-27T02:41:51;64.30;;;12.55;;
49310;SDS011;35177;45.900;5.946;2024-01-27T02:44:16;70.60;;;13.90;;
49310;SDS011;35177;45.900;5.946;2024-01-27T02:46:42;45.05;;;12.25;;
49310;SDS011;35177;45.900;5.946;2024-01-27T02:49:09;28.70;;;10.43;;
49310;SDS011;35177;45.900;5.946;2024-01-27T02:51:34;19.00;;;9.98;;
49310;SDS011;35177;45.900;5.946;2024-01-27T02:53:59;19.38;;;9.85;;
49310;SDS011;35177;45.900;5.946;2024-01-27T02:56:24;17.45;;;8.63;;
49310;SDS011;35177;45.900;5.946;2024-01-27T02:58:50;16.45;;;8.60;;
49310;SDS011;35177;45.900;5.946;2024-01-27T03:01:15;14.40;;;7.63;;
49310;SDS011;35177;45.900;5.946;2024-01-27T03:03:40;19.73;;;9.05;;
49310;SDS011;35177;45.900;5.946;2024-01-27T03:06:05;17.45;;;8.90;;
49310;SDS011;35177;45.900;5.946;2024-01-27T03:08:31;21.17;;;9.10;;
49310;SDS011;35177;45.900;5.946;2024-01-27T03:10:56;23.60;;;9.60;;
49310;SDS011;35177;45.900;5.946;2024-01-27T03:13:21;20.95;;;9.82;;
49310;SDS011;35177;45.900;5.946;2024-01-27T03:15:46;28.10;;;11.20;;
49310;SDS011;35177;45.900;5.946;2024-01-27T03:18:12;26.25;;;11.50;;
49310;SDS011;35177;45.900;5.946;2024-01-27T03:20:37;25.15;;;9.90;;
49310;SDS011;35177;45.900;5.946;2024-01-27T03:23:02;27.60;;;10.00;;
49310;SDS011;35177;45.900;5.946;2024-01-27T03:25:28;28.20;;;10.77;;
49310;SDS011;35177;45.900;5.946;2024-01-27T03:27:53;22.95;;;9.98;;
49310;SDS011;35177;45.900;5.946;2024-01-27T03:30:18;27.85;;;11.45;;
49310;SDS011;35177;45.900;5.946;2024-01-27T03:32:44;26.95;;;11.27;;
49310;SDS011;35177;45.900;5.946;2024-01-27T03:35:09;25.50;;;11.50;;
49310;SDS011;35177;45.900;5.946;2024-01-27T03:37:34;22.50;;;10.00;;
49310;SDS011;35177;45.900;5.946;2024-01-27T03:40:00;18.17;;;10.10;;
49310;SDS011;35177;45.900;5.946;2024-01-27T03:42:26;20.65;;;9.57;;
49310;SDS011;35177;45.900;5.946;2024-01-27T03:44:51;17.08;;;9.32;;
49310;SDS011;35177;45.900;5.946;2024-01-27T03:47:16;16.15;;;9.02;;
49310;SDS011;35177;45.900;5.946;2024-01-27T03:49:42;20.33;;;8.98;;
49310;SDS011;35177;45.900;5.946;2024-01-27T03:52:07;46.50;;;12.55;;
49310;SDS011;35177;45.900;5.946;2024-01-27T03:54:32;36.38;;;11.13;;
49310;SDS011;35177;45.900;5.946;2024-01-27T03:56:57;29.40;;;10.55;;
49310;SDS011;35177;45.900;5.946;2024-01-27T03:59:23;45.08;;;9.75;;
49310;SDS011;35177;45.900;5.946;2024-01-27T04:01:48;53.90;;;14.68;;
49310;SDS011;35177;45.900;5.946;2024-01-27T04:04:13;62.88;;;12.55;;
49310;SDS011;35177;45.900;5.946;2024-01-27T04:06:39;35.17;;;11.02;;
49310;SDS011;35177;45.900;5.946;2024-01-27T04:09:05;18.95;;;7.75;;
49310;SDS011;35177;45.900;5.946;2024-01-27T04:11:33;19.67;;;9.18;;
49310;SDS011;35177;45.900;5.946;2024-01-27T04:13:59;36.70;;;14.57;;
49310;SDS011;35177;45.900;5.946;2024-01-27T04:16:24;26.92;;;10.23;;
49310;SDS011;35177;45.900;5.946;2024-01-27T04:18:49;20.17;;;8.18;;
49310;SDS011;35177;45.900;5.946;2024-01-27T04:21:15;27.55;;;11.50;;
49310;SDS011;35177;45.900;5.946;2024-01-27T04:23:40;43.45;;;23.50;;
49310;SDS011;35177;45.900;5.946;2024-01-27T04:26:05;35.45;;;19.50;;
49310;SDS011;35177;45.900;5.946;2024-01-27T04:28:31;21.48;;;10.35;;
49310;SDS011;35177;45.900;5.946;2024-01-27T04:30:56;21.55;;;10.65;;
49310;SDS011;35177;45.900;5.946;2024-01-27T04:33:22;19.88;;;10.80;;
49310;SDS011;35177;45.900;5.946;2024-01-27T04:35:47;25.05;;;9.68;;
49310;SDS011;35177;45.900;5.946;2024-01-27T04:38:12;17.13;;;9.63;;
49310;SDS011;35177;45.900;5.946;2024-01-27T04:40:38;19.77;;;10.70;;
49310;SDS011;35177;45.900;5.946;2024-01-27T04:43:03;21.45;;;10.38;;
49310;SDS011;35177;45.900;5.946;2024-01-27T04:45:28;21.48;;;11.80;;
49310;SDS011;35177;45.900;5.946;2024-01-27T04:47:54;20.00;;;9.68;;
49310;SDS011;35177;45.900;5.946;2024-01-27T04:50:19;19.08;;;10.27;;
49310;SDS011;35177;45.900;5.946;2024-01-27T04:52:45;13.80;;;7.35;;
49310;SDS011;35177;45.900;5.946;2024-01-27T04:55:11;13.18;;;7.10;;
49310;SDS011;35177;45.900;5.946;2024-01-27T04:57:36;14.68;;;8.07;;
49310;SDS011;35177;45.900;5.946;2024-01-27T05:00:01;12.38;;;8.05;;
49310;SDS011;35177;45.900;5.946;2024-01-27T05:02:27;15.18;;;8.52;;
49310;SDS011;35177;45.900;5.946;2024-01-27T05:04:52;13.77;;;7.88;;
49310;SDS011;35177;45.900;5.946;2024-01-27T05:07:17;12.75;;;7.82;;
49310;SDS011;35177;45.900;5.946;2024-01-27T05:09:43;14.57;;;7.50;;
49310;SDS011;35177;45.900;5.946;2024-01-27T05:12:08;15.88;;;7.82;;
49310;SDS011;35177;45.900;5.946;2024-01-27T05:14:33;13.50;;;7.18;;
49310;SDS011;35177;45.900;5.946;2024-01-27T05:16:59;13.75;;;7.53;;
49310;SDS011;35177;45.900;5.946;2024-01-27T05:19:24;13.52;;;8.00;;
49310;SDS011;35177;45.900;5.946;2024-01-27T05:21:49;10.93;;;6.45;;
49310;SDS011;35177;45.900;5.946;2024-01-27T05:24:14;14.77;;;8.57;;
49310;SDS011;35177;45.900;5.946;2024-01-27T05:26:40;81.30;;;14.50;;
49310;SDS011;35177;45.900;5.946;2024-01-27T05:29:05;99.78;;;15.82;;
49310;SDS011;35177;45.900;5.946;2024-01-27T05:31:31;67.20;;;14.95;;
49310;SDS011;35177;45.900;5.946;2024-01-27T05:33:56;150.02;;;19.42;;
49310;SDS011;35177;45.900;5.946;2024-01-27T05:36:21;104.68;;;16.92;;
49310;SDS011;35177;45.900;5.946;2024-01-27T05:38:47;112.82;;;23.85;;
49310;SDS011;35177;45.900;5.946;2024-01-27T05:41:12;61.28;;;17.98;;
49310;SDS011;35177;45.900;5.946;2024-01-27T05:43:37;48.92;;;13.57;;
49310;SDS011;35177;45.900;5.946;2024-01-27T05:46:03;35.88;;;12.27;;
49310;SDS011;35177;45.900;5.946;2024-01-27T05:48:28;54.92;;;18.60;;
49310;SDS011;35177;45.900;5.946;2024-01-27T05:51:00;57.15;;;25.65;;
49310;SDS011;35177;45.900;5.946;2024-01-27T05:53:25;57.05;;;27.83;;
49310;SDS011;35177;45.900;5.946;2024-01-27T05:55:51;31.63;;;12.23;;
49310;SDS011;35177;45.900;5.946;2024-01-27T05:58:17;30.15;;;11.98;;
49310;SDS011;35177;45.900;5.946;2024-01-27T06:00:43;29.40;;;11.68;;
49310;SDS011;35177;45.900;5.946;2024-01-27T06:03:09;28.70;;;11.73;;
49310;SDS011;35177;45.900;5.946;2024-01-27T06:05:34;31.95;;;13.10;;
49310;SDS011;35177;45.900;5.946;2024-01-27T06:07:59;30.98;;;12.73;;
49310;SDS011;35177;45.900;5.946;2024-01-27T06:10:24;22.52;;;10.85;;
49310;SDS011;35177;45.900;5.946;2024-01-27T06:12:50;20.92;;;10.07;;
49310;SDS011;35177;45.900;5.946;2024-01-27T06:15:15;19.38;;;9.52;;
49310;SDS011;35177;45.900;5.946;2024-01-27T06:17:41;21.27;;;9.45;;
49310;SDS011;35177;45.900;5.946;2024-01-27T06:20:06;23.45;;;10.80;;
49310;SDS011;35177;45.900;5.946;2024-01-27T06:22:32;24.58;;;9.95;;
49310;SDS011;35177;45.900;5.946;2024-01-27T06:24:57;17.30;;;9.20;;
49310;SDS011;35177;45.900;5.946;2024-01-27T06:27:23;17.23;;;9.13;;
49310;SDS011;35177;45.900;5.946;2024-01-27T06:29:48;25.13;;;9.73;;
49310;SDS011;35177;45.900;5.946;2024-01-27T06:32:13;21.60;;;10.05;;
49310;SDS011;35177;45.900;5.946;2024-01-27T06:34:39;26.80;;;11.88;;
49310;SDS011;35177;45.900;5.946;2024-01-27T06:37:04;31.75;;;13.15;;
49310;SDS011;35177;45.900;5.946;2024-01-27T06:39:30;28.08;;;12.45;;
49310;SDS011;35177;45.900;5.946;2024-01-27T06:41:55;29.25;;;13.07;;
49310;SDS011;35177;45.900;5.946;2024-01-27T06:44:20;29.10;;;13.23;;
49310;SDS011;35177;45.900;5.946;2024-01-27T06:46:45;28.63;;;13.00;;
49310;SDS011;35177;45.900;5.946;2024-01-27T06:49:14;30.42;;;13.38;;
49310;SDS011;35177;45.900;5.946;2024-01-27T06:51:40;26.30;;;13.07;;
49310;SDS011;35177;45.900;5.946;2024-01-27T06:54:05;23.52;;;12.05;;
49310;SDS011;35177;45.900;5.946;2024-01-27T06:56:30;22.25;;;11.75;;
49310;SDS011;35177;45.900;5.946;2024-01-27T06:58:55;23.70;;;11.82;;
49310;SDS011;35177;45.900;5.946;2024-01-27T07:01:21;21.52;;;11.05;;
49310;SDS011;35177;45.900;5.946;2024-01-27T07:03:46;25.67;;;11.50;;
49310;SDS011;35177;45.900;5.946;2024-01-27T07:06:11;20.25;;;10.90;;
49310;SDS011;35177;45.900;5.946;2024-01-27T07:08:36;20.42;;;10.57;;
49310;SDS011;35177;45.900;5.946;2024-01-27T07:11:02;20.25;;;10.27;;
49310;SDS011;35177;45.900;5.946;2024-01-27T07:13:27;23.35;;;12.90;;
49310;SDS011;35177;45.900;5.946;2024-01-27T07:15:54;20.02;;;12.00;;
49310;SDS011;35177;45.900;5.946;2024-01-27T07:18:19;24.35;;;12.52;;
49310;SDS011;35177;45.900;5.946;2024-01-27T07:20:45;24.08;;;12.70;;
49310;SDS011;35177;45.900;5.946;2024-01-27T07:23:10;28.35;;;13.80;;
49310;SDS011;35177;45.900;5.946;2024-01-27T07:25:35;39.83;;;20.20;;
49310;SDS011;35177;45.900;5.946;2024-01-27T07:28:00;35.50;;;18.15;;
49310;SDS011;35177;45.900;5.946;2024-01-27T07:30:26;29.25;;;15.70;;
49310;SDS011;35177;45.900;5.946;2024-01-27T07:32:52;27.13;;;16.35;;
49310;SDS011;35177;45.900;5.946;2024-01-27T07:35:18;26.67;;;15.45;;
49310;SDS011;35177;45.900;5.946;2024-01-27T07:37:43;31.40;;;16.65;;
49310;SDS011;35177;45.900;5.946;2024-01-27T07:40:09;27.45;;;16.23;;
49310;SDS011;35177;45.900;5.946;2024-01-27T07:42:34;27.52;;;15.43;;
49310;SDS011;35177;45.900;5.946;2024-01-27T07:44:59;25.95;;;14.18;;
49310;SDS011;35177;45.900;5.946;2024-01-27T07:47:25;24.08;;;14.18;;
49310;SDS011;35177;45.900;5.946;2024-01-27T07:49:50;21.80;;;13.43;;
49310;SDS011;35177;45.900;5.946;2024-01-27T07:52:15;22.08;;;13.50;;
49310;SDS011;35177;45.900;5.946;2024-01-27T07:54:41;20.85;;;12.88;;
49310;SDS011;35177;45.900;5.946;2024-01-27T07:57:06;17.70;;;11.05;;
49310;SDS011;35177;45.900;5.946;2024-01-27T07:59:31;17.17;;;10.75;;
49310;SDS011;35177;45.900;5.946;2024-01-27T08:01:57;16.35;;;10.93;;
49310;SDS011;35177;45.900;5.946;2024-01-27T08:04:22;14.80;;;9.98;;
49310;SDS011;35177;45.900;5.946;2024-01-27T08:06:48;15.85;;;11.02;;
49310;SDS011;35177;45.900;5.946;2024-01-27T08:09:14;13.20;;;10.35;;
49310;SDS011;35177;45.900;5.946;2024-01-27T08:11:40;16.92;;;9.70;;
49310;SDS011;35177;45.900;5.946;2024-01-27T08:14:05;13.70;;;8.63;;
49310;SDS011;35177;45.900;5.946;2024-01-27T08:16:30;12.05;;;8.48;;
49310;SDS011;35177;45.900;5.946;2024-01-27T08:18:56;11.65;;;7.85;;
49310;SDS011;35177;45.900;5.946;2024-01-27T08:21:21;9.77;;;7.28;;
49310;SDS011;35177;45.900;5.946;2024-01-27T08:23:46;11.73;;;7.53;;
49310;SDS011;35177;45.900;5.946;2024-01-27T08:26:13;9.93;;;6.95;;
49310;SDS011;35177;45.900;5.946;2024-01-27T08:28:38;11.57;;;7.65;;
49310;SDS011;35177;45.900;5.946;2024-01-27T08:31:04;10.43;;;7.00;;
49310;SDS011;35177;45.900;5.946;2024-01-27T08:33:29;8.88;;;6.65;;
49310;SDS011;35177;45.900;5.946;2024-01-27T08:35:55;9.82;;;7.00;;
49310;SDS011;35177;45.900;5.946;2024-01-27T08:38:20;9.20;;;6.50;;
49310;SDS011;35177;45.900;5.946;2024-01-27T08:40:45;11.00;;;6.95;;
49310;SDS011;35177;45.900;5.946;2024-01-27T08:43:12;8.95;;;6.35;;
49310;SDS011;35177;45.900;5.946;2024-01-27T08:45:37;8.32;;;6.10;;
49310;SDS011;35177;45.900;5.946;2024-01-27T08:48:04;8.48;;;5.78;;
49310;SDS011;35177;45.900;5.946;2024-01-27T08:50:29;7.00;;;5.65;;
49310;SDS011;35177;45.900;5.946;2024-01-27T08:52:54;9.10;;;5.75;;
49310;SDS011;35177;45.900;5.946;2024-01-27T08:55:19;8.43;;;5.25;;
49310;SDS011;35177;45.900;5.946;2024-01-27T08:57:48;6.38;;;5.25;;
49310;SDS011;35177;45.900;5.946;2024-01-27T09:00:14;6.38;;;4.80;;
49310;SDS011;35177;45.900;5.946;2024-01-27T09:02:41;5.03;;;4.30;;
49310;SDS011;35177;45.900;5.946;2024-01-27T09:05:06;6.68;;;5.20;;
49310;SDS011;35177;45.900;5.946;2024-01-27T09:07:33;9.70;;;5.13;;
49310;SDS011;35177;45.900;5.946;2024-01-27T09:09:58;5.40;;;4.70;;
49310;SDS011;35177;45.900;5.946;2024-01-27T09:12:24;7.07;;;4.78;;
49310;SDS011;35177;45.900;5.946;2024-01-27T09:14:49;6.95;;;4.53;;
49310;SDS011;35177;45.900;5.946;2024-01-27T09:17:15;6.18;;;4.90;;
49310;SDS011;35177;45.900;5.946;2024-01-27T09:19:40;6.97;;;5.20;;
49310;SDS011;35177;45.900;5.946;2024-01-27T09:22:05;6.45;;;4.70;;
49310;SDS011;35177;45.900;5.946;2024-01-27T09:24:31;6.32;;;4.93;;
49310;SDS011;35177;45.900;5.946;2024-01-27T09:26:56;7.13;;;3.75;;
49310;SDS011;35177;45.900;5.946;2024-01-27T09:29:21;5.15;;;4.10;;
49310;SDS011;35177;45.900;5.946;2024-01-27T09:31:46;7.80;;;3.40;;
49310;SDS011;35177;45.900;5.946;2024-01-27T09:34:12;5.22;;;3.88;;
49310;SDS011;35177;45.900;5.946;2024-01-27T09:36:37;3.35;;;2.38;;
49310;SDS011;35177;45.900;5.946;2024-01-27T09:39:02;3.35;;;2.55;;
49310;SDS011;35177;45.900;5.946;2024-01-27T09:41:31;3.03;;;2.20;;
49310;SDS011;35177;45.900;5.946;2024-01-27T09:44:00;2.65;;;2.10;;
49310;SDS011;35177;45.900;5.946;2024-01-27T09:46:26;2.53;;;2.17;;
49310;SDS011;35177;45.900;5.946;2024-01-27T09:48:51;1.85;;;1.60;;
49310;SDS011;35177;45.900;5.946;2024-01-27T09:51:18;2.85;;;2.03;;
49310;SDS011;35177;45.900;5.946;2024-01-27T09:53:44;2.08;;;1.77;;
49310;SDS011;35177;45.900;5.946;2024-01-27T09:56:10;2.30;;;1.95;;
49310;SDS011;35177;45.900;5.946;2024-01-27T09:58:36;3.67;;;2.45;;
49310;SDS011;35177;45.900;5.946;2024-01-27T10:01:02;3.55;;;2.15;;
49310;SDS011;35177;45.900;5.946;2024-01-27T10:03:28;2.92;;;2.28;;
49310;SDS011;35177;45.900;5.946;2024-01-27T10:05:53;2.65;;;2.30;;
49310;SDS011;35177;45.900;5.946;2024-01-27T10:08:23;2.72;;;2.08;;
49310;SDS011;35177;45.900;5.946;2024-01-27T10:10:53;2.33;;;1.77;;
49310;SDS011;35177;45.900;5.946;2024-01-27T10:13:19;3.10;;;2.67;;
49310;SDS011;35177;45.900;5.946;2024-01-27T10:15:58;3.92;;;2.70;;
49310;SDS011;35177;45.900;5.946;2024-01-27T10:18:24;4.82;;;3.38;;
49310;SDS011;35177;45.900;5.946;2024-01-27T10:20:49;5.03;;;3.33;;
49310;SDS011;35177;45.900;5.946;2024-01-27T10:23:15;4.38;;;3.33;;
49310;SDS011;35177;45.900;5.946;2024-01-27T10:25:40;3.80;;;3.35;;
49310;SDS011;35177;45.900;5.946;2024-01-27T10:28:09;4.75;;;3.17;;
49310;SDS011;35177;45.900;5.946;2024-01-27T10:30:34;3.65;;;2.78;;
49310;SDS011;35177;45.900;5.946;2024-01-27T10:32:59;3.58;;;3.20;;
49310;SDS011;35177;45.900;5.946;2024-01-27T10:35:25;5.25;;;3.83;;
49310;SDS011;35177;45.900;5.946;2024-01-27T10:37:53;9.38;;;4.30;;
49310;SDS011;35177;45.900;5.946;2024-01-27T10:40:19;4.00;;;3.35;;
49310;SDS011;35177;45.900;5.946;2024-01-27T10:42:45;3.00;;;2.70;;
49310;SDS011;35177;45.900;5.946;2024-01-27T10:45:11;3.95;;;3.00;;
49310;SDS011;35177;45.900;5.946;2024-01-27T10:47:36;3.33;;;3.03;;
49310;SDS011;35177;45.900;5.946;2024-01-27T10:50:02;4.18;;;2.60;;
49310;SDS011;35177;45.900;5.946;2024-01-27T10:52:28;3.85;;;3.05;;
49310;SDS011;35177;45.900;5.946;2024-01-27T10:54:58;3.42;;;2.90;;
49310;SDS011;35177;45.900;5.946;2024-01-27T10:57:24;4.97;;;3.42;;
49310;SDS011;35177;45.900;5.946;2024-01-27T10:59:51;4.82;;;3.45;;
49310;SDS011;35177;45.900;5.946;2024-01-27T11:02:18;4.88;;;3.72;;
49310;SDS011;35177;45.900;5.946;2024-01-27T11:04:43;4.22;;;3.30;;
49310;SDS011;35177;45.900;5.946;2024-01-27T11:07:09;5.40;;;3.30;;
49310;SDS011;35177;45.900;5.946;2024-01-27T11:09:35;3.70;;;3.28;;
49310;SDS011;35177;45.900;5.946;2024-01-27T11:12:00;6.15;;;3.85;;
49310;SDS011;35177;45.900;5.946;2024-01-27T11:14:26;4.75;;;3.42;;
49310;SDS011;35177;45.900;5.946;2024-01-27T11:16:57;5.07;;;3.72;;
49310;SDS011;35177;45.900;5.946;2024-01-27T11:19:23;5.35;;;3.55;;
49310;SDS011;35177;45.900;5.946;2024-01-27T11:21:48;4.10;;;3.25;;
49310;SDS011;35177;45.900;5.946;2024-01-27T11:26:38;6.30;;;4.38;;
49310;SDS011;35177;45.900;5.946;2024-01-27T11:29:07;4.57;;;3.10;;
49310;SDS011;35177;45.900;5.946;2024-01-27T11:31:34;5.82;;;3.40;;
49310;SDS011;35177;45.900;5.946;2024-01-27T11:34:00;5.22;;;3.47;;
49310;SDS011;35177;45.900;5.946;2024-01-27T11:36:25;3.40;;;2.83;;
49310;SDS011;35177;45.900;5.946;2024-01-27T11:38:52;3.10;;;2.63;;
49310;SDS011;35177;45.900;5.946;2024-01-27T11:41:27;2.90;;;2.33;;
49310;SDS011;35177;45.900;5.946;2024-01-27T11:43:56;3.45;;;2.63;;
49310;SDS011;35177;45.900;5.946;2024-01-27T11:46:22;4.60;;;2.65;;
49310;SDS011;35177;45.900;5.946;2024-01-27T11:48:47;3.45;;;2.45;;
49310;SDS011;35177;45.900;5.946;2024-01-27T11:51:14;3.47;;;2.47;;
49310;SDS011;35177;45.900;5.946;2024-01-27T11:53:39;2.45;;;2.25;;
49310;SDS011;35177;45.900;5.946;2024-01-27T11:56:04;2.88;;;1.67;;
49310;SDS011;35177;45.900;5.946;2024-01-27T11:58:30;2.80;;;1.92;;
49310;SDS011;35177;45.900;5.946;2024-01-27T12:00:58;2.65;;;2.40;;
49310;SDS011;35177;45.900;5.946;2024-01-27T12:03:24;6.43;;;2.60;;
49310;SDS011;35177;45.900;5.946;2024-01-27T12:05:49;3.20;;;2.45;;
49310;SDS011;35177;45.900;5.946;2024-01-27T12:08:16;2.70;;;2.20;;
49310;SDS011;35177;45.900;5.946;2024-01-27T12:10:41;3.08;;;1.90;;
49310;SDS011;35177;45.900;5.946;2024-01-27T12:13:07;2.55;;;2.08;;
49310;SDS011;35177;45.900;5.946;2024-01-27T12:15:32;4.38;;;2.20;;
49310;SDS011;35177;45.900;5.946;2024-01-27T12:17:57;2.13;;;1.60;;
49310;SDS011;35177;45.900;5.946;2024-01-27T12:20:23;2.58;;;1.77;;
49310;SDS011;35177;45.900;5.946;2024-01-27T12:22:48;3.63;;;2.45;;
49310;SDS011;35177;45.900;5.946;2024-01-27T12:25:20;3.45;;;2.00;;
49310;SDS011;35177;45.900;5.946;2024-01-27T12:27:46;2.30;;;1.38;;
49310;SDS011;35177;45.900;5.946;2024-01-27T12:30:11;5.95;;;2.83;;
49310;SDS011;35177;45.900;5.946;2024-01-27T12:32:37;3.28;;;2.30;;
49310;SDS011;35177;45.900;5.946;2024-01-27T12:35:05;2.88;;;2.03;;
49310;SDS011;35177;45.900;5.946;2024-01-27T12:37:31;3.47;;;2.25;;
49310;SDS011;35177;45.900;5.946;2024-01-27T12:39:56;4.18;;;2.67;;
49310;SDS011;35177;45.900;5.946;2024-01-27T12:42:21;2.28;;;1.40;;
49310;SDS011;35177;45.900;5.946;2024-01-27T12:44:47;1.90;;;1.50;;
49310;SDS011;35177;45.900;5.946;2024-01-27T12:47:12;1.90;;;1.70;;
49310;SDS011;35177;45.900;5.946;2024-01-27T12:49:38;2.40;;;1.50;;
49310;SDS011;35177;45.900;5.946;2024-01-27T12:52:04;2.15;;;1.50;;
49310;SDS011;35177;45.900;5.946;2024-01-27T12:54:29;1.88;;;1.40;;
49310;SDS011;35177;45.900;5.946;2024-01-27T12:56:55;3.38;;;1.52;;
49310;SDS011;35177;45.900;5.946;2024-01-27T12:59:21;1.67;;;1.48;;
49310;SDS011;35177;45.900;5.946;2024-01-27T13:01:46;2.05;;;1.63;;
49310;SDS011;35177;45.900;5.946;2024-01-27T13:04:11;2.78;;;1.60;;
49310;SDS011;35177;45.900;5.946;2024-01-27T13:06:37;2.65;;;1.60;;
49310;SDS011;35177;45.900;5.946;2024-01-27T13:09:03;1.15;;;1.05;;
49310;SDS011;35177;45.900;5.946;2024-01-27T13:11:28;1.52;;;1.10;;
49310;SDS011;35177;45.900;5.946;2024-01-27T13:13:53;1.35;;;0.90;;
49310;SDS011;35177;45.900;5.946;2024-01-27T13:16:19;2.75;;;1.13;;
49310;SDS011;35177;45.900;5.946;2024-01-27T13:18:44;1.17;;;1.05;;
49310;SDS011;35177;45.900;5.946;2024-01-27T13:21:11;1.35;;;1.10;;
49310;SDS011;35177;45.900;5.946;2024-01-27T13:23:36;0.90;;;0.90;;
49310;SDS011;35177;45.900;5.946;2024-01-27T13:26:01;2.08;;;0.90;;
49310;SDS011;35177;45.900;5.946;2024-01-27T13:28:27;1.35;;;1.17;;
49310;SDS011;35177;45.900;5.946;2024-01-27T13:30:52;1.38;;;1.13;;
49310;SDS011;35177;45.900;5.946;2024-01-27T13:33:17;2.95;;;1.40;;
49310;SDS011;35177;45.900;5.946;2024-01-27T13:35:42;2.10;;;1.27;;
49310;SDS011;35177;45.900;5.946;2024-01-27T13:38:11;1.55;;;1.30;;
49310;SDS011;35177;45.900;5.946;2024-01-27T13:40:37;2.42;;;1.58;;
49310;SDS011;35177;45.900;5.946;2024-01-27T13:43:03;4.40;;;1.80;;
49310;SDS011;35177;45.900;5.946;2024-01-27T13:45:28;1.45;;;1.33;;
49310;SDS011;35177;45.900;5.946;2024-01-27T13:47:53;2.13;;;1.27;;
49310;SDS011;35177;45.900;5.946;2024-01-27T13:50:18;2.63;;;1.70;;
49310;SDS011;35177;45.900;5.946;2024-01-27T13:52:44;1.17;;;1.08;;
49310;SDS011;35177;45.900;5.946;2024-01-27T13:55:10;2.40;;;1.80;;
49310;SDS011;35177;45.900;5.946;2024-01-27T13:57:36;1.80;;;1.30;;
49310;SDS011;35177;45.900;5.946;2024-01-27T14:00:01;2.50;;;1.30;;
49310;SDS011;35177;45.900;5.946;2024-01-27T14:02:27;1.77;;;1.40;;
49310;SDS011;35177;45.900;5.946;2024-01-27T14:04:52;2.08;;;1.08;;
49310;SDS011;35177;45.900;5.946;2024-01-27T14:07:17;2.03;;;1.20;;
49310;SDS011;35177;45.900;5.946;2024-01-27T14:09:43;1.65;;;1.20;;
49310;SDS011;35177;45.900;5.946;2024-01-27T14:12:09;2.17;;;1.35;;
49310;SDS011;35177;45.900;5.946;2024-01-27T14:14:34;1.50;;;1.23;;
49310;SDS011;35177;45.900;5.946;2024-01-27T14:17:03;2.63;;;1.63;;
49310;SDS011;35177;45.900;5.946;2024-01-27T14:19:29;1.48;;;1.27;;
49310;SDS011;35177;45.900;5.946;2024-01-27T14:21:54;1.55;;;1.38;;
49310;SDS011;35177;45.900;5.946;2024-01-27T14:24:19;2.47;;;1.42;;
49310;SDS011;35177;45.900;5.946;2024-01-27T14:26:45;3.35;;;1.50;;